Time;durP1;ratioP1;P1;durP2;ratioP2;P2;SDS_P1;SDS_P2;PMS_P1;PMS_P2;Temp;Humidity;BMP_temperature;BMP_pressure;BME280_temperature;BME280_humidity;BME280_pressure;Samples;Min_cycle;Max_cycle;Signal;HPM_P1;HPM_P2
2022/09/15 00:01:10;;;;;;;3.75;1.40;;;;;;;23.36;36.42;98482.88;4981555;28;20084;-80
2022/09/15 00:03:35;;;;;;;2.30;1.40;;;;;;;23.39;36.34;98490.41;5015052;28;20036;-81
2022/09/15 00:06:01;;;;;;;1.70;1.20;;;;;;;23.33;36.21;98483.28;5009788;28;20029;-81
2022/09/15 00:08:26;;;;;;;1.90;1.40;;;;;;;23.35;36.35;98489.22;5000426;28;20037;-80
2022/09/15 00:11:10;;;;;;;2.53;1.20;;;;;;;23.35;36.20;98478.56;5015828;28;20057;-79
2022/09/15 00:13:36;;;;;;;2.55;1.27;;;;;;;23.32;36.42;98482.44;4990236;28;20025;-79
2022/09/15 00:16:02;;;;;;;3.20;1.60;;;;;;;23.29;36.49;98480.19;5005531;28;20026;-80
2022/09/15 00:18:28;;;;;;;2.65;1.20;;;;;;;23.28;36.70;98492.69;4988811;28;20408;-80
2022/09/15 00:20:53;;;;;;;3.13;1.35;;;;;;;23.27;36.42;98491.03;5005731;28;20037;-80
2022/09/15 00:23:19;;;;;;;4.00;1.67;;;;;;;23.24;36.55;98485.31;5004109;28;20587;-78
2022/09/15 00:25:49;;;;;;;2.13;1.25;;;;;;;23.26;36.54;98484.09;4988775;28;20037;-80
2022/09/15 00:28:15;;;;;;;3.45;1.50;;;;;;;23.23;36.56;98471.19;4973461;28;20037;-80
2022/09/15 00:30:46;;;;;;;2.67;1.40;;;;;;;23.23;36.62;98467.69;4988023;28;20100;-79
2022/09/15 00:33:12;;;;;;;2.78;1.13;;;;;;;23.20;36.75;98468.09;4987810;28;20813;-80
2022/09/15 00:35:39;;;;;;;1.80;1.30;;;;;;;23.19;36.50;98461.16;4989259;28;20033;-81
2022/09/15 00:38:04;;;;;;;2.88;1.45;;;;;;;23.15;36.78;98447.44;5004445;28;20160;-79
2022/09/15 00:40:30;;;;;;;3.25;1.20;;;;;;;23.16;36.83;98445.59;4988029;28;20021;-79
2022/09/15 00:42:55;;;;;;;3.33;1.55;;;;;;;23.18;36.78;98449.66;5023583;28;20519;-80
2022/09/15 00:45:21;;;;;;;3.22;1.30;;;;;;;23.15;37.03;98439.44;5021957;28;20413;-78
2022/09/15 00:47:46;;;;;;;3.40;1.50;;;;;;;23.15;36.79;98447.44;5022217;28;20033;-79
2022/09/15 00:50:14;;;;;;;2.20;1.35;;;;;;;23.16;37.13;98448.25;4989754;28;20136;-79
2022/09/15 00:52:46;;;;;;;2.60;1.35;;;;;;;23.12;36.83;98435.34;4988449;28;20029;-79
2022/09/15 00:55:15;;;;;;;4.55;1.38;;;;;;;23.11;37.13;98448.88;5021852;28;20477;-80
2022/09/15 00:57:42;;;;;;;3.53;1.40;;;;;;;23.11;37.19;98443.53;4969457;28;20044;-80
2022/09/15 01:00:10;;;;;;;2.60;1.35;;;;;;;23.06;37.14;98443.31;5004238;28;20496;-79
2022/09/15 01:02:36;;;;;;;2.70;1.30;;;;;;;23.05;37.30;98447.78;4989490;28;20124;-79
2022/09/15 01:05:04;;;;;;;1.98;1.30;;;;;;;23.02;37.13;98444.72;4988082;28;20030;-80
2022/09/15 01:07:34;;;;;;;2.47;1.40;;;;;;;22.97;37.32;98437.34;4987742;28;20030;-79
2022/09/15 01:10:05;;;;;;;3.70;1.20;;;;;;;23.01;37.45;98443.91;5006195;28;20061;-79
2022/09/15 01:12:31;;;;;;;4.80;1.52;;;;;;;23.01;37.37;98448.41;5015934;28;20030;-79
2022/09/15 01:14:58;;;;;;;2.17;1.40;;;;;;;23.00;37.25;98442.28;4999539;28;20512;-79
2022/09/15 01:17:40;;;;;;;3.83;1.30;;;;;;;22.99;37.28;98435.31;4999648;28;20064;-80
2022/09/15 01:20:23;;;;;;;3.38;1.27;;;;;;;22.99;37.67;98442.47;5015650;28;20037;-80
2022/09/15 01:23:31;;;;;;;3.90;1.40;;;;;;;22.98;37.45;98438.16;5033558;28;20025;-79
2022/09/15 01:26:14;;;;;;;4.30;1.40;;;;;;;22.98;37.43;98443.50;4952965;29;20054;-80
2022/09/15 01:28:52;;;;;;;3.08;1.48;;;;;;;22.95;37.57;98445.53;4952787;29;20122;-80
2022/09/15 01:31:23;;;;;;;2.25;1.30;;;;;;;22.97;37.45;98450.66;4953137;29;20051;-80
2022/09/15 01:33:59;;;;;;;3.75;1.60;;;;;;;22.98;37.74;98454.13;4937106;29;20122;-79
2022/09/15 01:36:30;;;;;;;4.45;1.50;;;;;;;22.94;37.62;98443.09;4922409;29;20086;-80
2022/09/15 01:39:15;;;;;;;4.25;1.38;;;;;;;22.94;37.60;98453.72;4937298;29;20035;-80
2022/09/15 01:41:43;;;;;;;2.78;1.60;;;;;;;22.92;37.78;98456.59;4969013;28;20086;-80
2022/09/15 01:44:14;;;;;;;3.55;1.40;;;;;;;22.88;37.65;98452.72;4922674;29;20126;-79
2022/09/15 01:46:46;;;;;;;4.43;1.65;;;;;;;22.88;37.87;98451.88;4918289;29;20144;-80
2022/09/15 01:49:14;;;;;;;2.42;1.48;;;;;;;22.86;37.83;98449.41;4949031;28;20046;-80
2022/09/15 01:51:40;;;;;;;4.55;1.35;;;;;;;22.84;38.02;98450.66;4933824;29;20079;-80
2022/09/15 01:54:05;;;;;;;2.78;1.50;;;;;;;22.76;37.79;98435.72;4917833;29;20047;-80
2022/09/15 01:56:31;;;;;;;2.30;1.40;;;;;;;22.82;37.91;98445.53;4886242;29;20043;-80
2022/09/15 01:58:56;;;;;;;6.85;1.33;;;;;;;22.82;38.03;98455.34;4901128;29;20069;-79
2022/09/15 02:01:32;;;;;;;3.35;1.50;;;;;;;22.80;38.06;98447.56;4917627;29;20031;-80
2022/09/15 02:04:04;;;;;;;2.88;1.45;;;;;;;22.79;37.90;98455.75;4990414;28;20049;-79
2022/09/15 02:06:51;;;;;;;3.97;1.65;;;;;;;22.81;37.99;98459.06;4979342;28;20362;-80
2022/09/15 02:09:20;;;;;;;3.15;1.20;;;;;;;22.81;38.12;98459.88;4995686;28;20474;-79
2022/09/15 02:11:54;;;;;;;3.58;1.40;;;;;;;22.78;38.26;98454.94;4978638;28;20065;-79
2022/09/15 02:14:36;;;;;;;3.30;1.50;;;;;;;22.76;37.93;98447.16;5012830;28;20033;-79
2022/09/15 02:17:04;;;;;;;2.72;1.70;;;;;;;22.81;38.12;98459.06;4980047;28;20419;-79
2022/09/15 02:19:31;;;;;;;3.40;1.60;;;;;;;22.79;38.42;98456.59;4995429;28;20117;-80
2022/09/15 02:21:58;;;;;;;4.82;1.50;;;;;;;22.76;38.42;98455.16;4995191;28;20613;-79
2022/09/15 02:24:27;;;;;;;3.42;1.90;;;;;;;22.66;38.16;98441.44;4995055;28;20204;-79
2022/09/15 02:26:54;;;;;;;2.20;1.45;;;;;;;22.71;38.16;98448.81;4963022;28;20124;-79
2022/09/15 02:29:20;;;;;;;2.90;1.70;;;;;;;22.73;38.19;98454.75;4994520;28;20060;-79
2022/09/15 02:31:46;;;;;;;2.65;1.83;;;;;;;22.70;38.51;98463.13;4978302;28;20033;-79
2022/09/15 02:34:20;;;;;;;2.58;1.50;;;;;;;22.68;38.51;98457.19;4978871;28;20037;-79
2022/09/15 02:36:45;;;;;;;7.95;1.80;;;;;;;22.63;38.48;98455.13;4995312;28;20478;-79
2022/09/15 02:39:12;;;;;;;3.55;1.80;;;;;;;22.66;38.33;98467.19;4994725;28;20084;-80
2022/09/15 02:41:38;;;;;;;2.70;1.50;;;;;;;22.64;38.71;98450.63;4962548;28;20061;-80
2022/09/15 02:44:04;;;;;;;5.50;1.80;;;;;;;22.63;38.61;98456.97;4961780;28;20069;-80
2022/09/15 02:46:30;;;;;;;2.58;1.80;;;;;;;22.62;38.81;98455.34;4978620;28;20578;-80
2022/09/15 02:48:55;;;;;;;4.25;1.85;;;;;;;22.61;38.85;98443.88;4994569;28;20034;-80
2022/09/15 02:51:21;;;;;;;4.57;2.00;;;;;;;22.61;39.01;98443.88;5012212;28;20037;-80
2022/09/15 02:53:47;;;;;;;2.75;1.85;;;;;;;22.61;38.96;98446.53;4994852;28;20026;-80
2022/09/15 02:56:12;;;;;;;3.92;2.20;;;;;;;22.61;38.95;98457.16;4994785;28;20084;-80
2022/09/15 02:58:38;;;;;;;5.63;3.05;;;;;;;22.57;38.86;98447.97;4999038;28;20552;-80
2022/09/15 03:01:04;;;;;;;5.50;2.70;;;;;;;22.57;38.84;98448.78;5016515;28;20069;-80
2022/09/15 03:03:31;;;;;;;5.82;2.47;;;;;;;22.59;39.09;98456.56;5001747;28;20032;-80
2022/09/15 03:06:15;;;;;;;5.40;3.03;;;;;;;22.59;39.27;98454.69;5018426;28;20394;-80
2022/09/15 03:09:00;;;;;;;4.68;2.88;;;;;;;22.51;38.97;98438.13;5021254;28;20022;-76
2022/09/15 03:11:26;;;;;;;5.50;3.47;;;;;;;22.54;39.12;98441.19;5001284;28;20050;-75
2022/09/15 03:13:53;;;;;;;4.88;3.00;;;;;;;22.55;39.42;98450.81;5001394;28;20087;-75
2022/09/15 03:16:18;;;;;;;7.85;3.17;;;;;;;22.55;39.35;98447.31;5002279;28;20030;-75
2022/09/15 03:18:43;;;;;;;5.07;2.70;;;;;;;22.53;39.29;98447.56;4989361;28;20505;-75
2022/09/15 03:21:11;;;;;;;9.55;3.45;;;;;;;22.48;39.40;98447.31;4998121;28;20386;-75
2022/09/15 03:23:36;;;;;;;8.00;2.45;;;;;;;22.48;39.74;98447.31;4965969;28;20496;-76
2022/09/15 03:26:02;;;;;;;6.97;2.60;;;;;;;22.51;39.62;98459.41;4998029;28;20026;-75
2022/09/15 03:28:27;;;;;;;4.20;2.40;;;;;;;22.47;39.86;98453.69;5015423;28;20448;-75
2022/09/15 03:30:53;;;;;;;3.40;2.33;;;;;;;22.49;39.81;98459.59;4981731;28;20569;-76
2022/09/15 03:33:20;;;;;;;3.55;2.20;;;;;;;22.41;39.87;98443.84;4981900;28;20512;-76
2022/09/15 03:35:46;;;;;;;3.45;2.00;;;;;;;22.49;39.88;98461.47;4966043;28;20040;-76
2022/09/15 03:38:12;;;;;;;4.68;2.30;;;;;;;22.45;39.76;98447.72;4965587;28;20034;-77
2022/09/15 03:40:37;;;;;;;3.42;2.10;;;;;;;22.51;39.76;98454.09;4982392;28;20128;-76
2022/09/15 03:43:03;;;;;;;4.18;1.90;;;;;;;22.48;39.74;98449.97;4964831;28;20303;-77
2022/09/15 03:45:28;;;;;;;5.25;1.95;;;;;;;22.50;39.85;98458.59;4964903;28;20038;-77
2022/09/15 03:47:54;;;;;;;3.67;2.30;;;;;;;22.45;39.65;98442.41;4981324;28;20481;-76
2022/09/15 03:50:19;;;;;;;3.30;2.10;;;;;;;22.49;39.85;98443.66;4997843;28;20030;-77
2022/09/15 03:52:45;;;;;;;3.03;1.90;;;;;;;22.49;39.69;98440.19;4981546;28;20030;-77
2022/09/15 03:55:11;;;;;;;4.03;2.00;;;;;;;22.50;39.74;98447.13;4980545;28;20041;-78
2022/09/15 03:57:37;;;;;;;4.45;1.95;;;;;;;22.49;39.55;98441.00;5001362;28;20029;-77
2022/09/15 04:00:04;;;;;;;3.17;2.17;;;;;;;22.48;39.74;98435.88;5001223;28;20025;-76
2022/09/15 04:02:29;;;;;;;3.35;1.98;;;;;;;22.52;39.57;98439.78;5000615;28;20040;-77
2022/09/15 04:04:55;;;;;;;5.57;1.95;;;;;;;22.55;39.32;98431.38;4984490;28;20022;-77
2022/09/15 04:07:20;;;;;;;2.63;1.85;;;;;;;22.61;39.38;98438.53;5000595;28;20048;-77
2022/09/15 04:09:46;;;;;;;2.90;2.10;;;;;;;22.68;39.42;98441.22;4984790;28;20061;-77
2022/09/15 04:12:11;;;;;;;4.00;1.92;;;;;;;22.76;39.36;98438.38;5017103;28;20037;-78
2022/09/15 04:14:37;;;;;;;3.75;1.80;;;;;;;22.87;38.84;98436.97;5017331;28;20119;-76
2022/09/15 04:17:02;;;;;;;3.17;1.85;;;;;;;23.06;38.58;98433.47;5001039;28;20025;-78
2022/09/15 04:19:28;;;;;;;4.93;2.10;;;;;;;23.26;38.24;98436.16;4984427;28;20029;-76
2022/09/15 04:21:53;;;;;;;2.88;1.80;;;;;;;23.58;37.63;98446.97;5017173;28;20413;-77
2022/09/15 04:24:19;;;;;;;4.90;1.95;;;;;;;23.86;36.96;98435.22;5016657;28;20469;-76
2022/09/15 04:26:45;;;;;;;5.28;2.17;;;;;;;24.16;36.39;98434.69;5000468;28;20029;-77
2022/09/15 04:29:12;;;;;;;4.57;2.10;;;;;;;24.49;35.73;98431.84;4984390;28;20053;-76
2022/09/15 04:31:37;;;;;;;3.50;2.30;;;;;;;24.79;35.40;98420.59;4981082;28;20045;-77
2022/09/15 04:34:03;;;;;;;3.05;2.22;;;;;;;25.25;34.23;98426.59;4964248;28;20589;-77
2022/09/15 04:36:30;;;;;;;3.67;2.20;;;;;;;25.74;33.60;98432.09;4997184;28;20104;-76
2022/09/15 04:38:55;;;;;;;4.75;2.38;;;;;;;26.21;32.85;98436.91;4964551;28;20137;-76
2022/09/15 04:41:23;;;;;;;3.63;2.20;;;;;;;26.69;31.81;98436.03;4980221;28;20073;-77
2022/09/15 04:43:48;;;;;;;4.85;2.55;;;;;;;27.08;31.21;98428.44;4964629;28;20037;-76
2022/09/15 04:46:14;;;;;;;5.13;2.15;;;;;;;27.54;30.73;98444.78;4963886;28;20043;-76
2022/09/15 04:48:40;;;;;;;3.53;2.10;;;;;;;27.94;29.99;98444.00;4981189;28;20466;-78
2022/09/15 04:51:07;;;;;;;3.42;2.22;;;;;;;28.28;29.61;98453.03;4964499;28;20054;-77
2022/09/15 04:53:34;;;;;;;4.80;2.13;;;;;;;28.17;29.88;98443.16;4980737;28;20107;-78
2022/09/15 04:56:05;;;;;;;4.57;2.20;;;;;;;28.25;29.79;98448.13;4980812;28;20779;-75
2022/09/15 04:58:38;;;;;;;4.88;2.20;;;;;;;28.68;29.23;98446.78;4980724;28;20458;-77
2022/09/15 05:01:15;;;;;;;3.95;2.20;;;;;;;29.23;28.75;98466.00;4965446;28;20038;-76
2022/09/15 05:03:41;;;;;;;3.60;2.10;;;;;;;29.66;28.25;98466.34;4997357;28;20041;-77
2022/09/15 05:06:08;;;;;;;8.98;2.67;;;;;;;29.87;27.82;98464.75;4986735;28;20459;-79
2022/09/15 05:08:33;;;;;;;5.10;2.40;;;;;;;29.73;27.92;98469.63;4999841;28;20116;-77
2022/09/15 05:11:00;;;;;;;7.95;2.67;;;;;;;29.58;27.92;98476.44;4999549;28;20131;-80
2022/09/15 05:13:26;;;;;;;5.43;2.40;;;;;;;29.32;28.49;98469.91;4983435;28;20120;-77
2022/09/15 05:15:51;;;;;;;7.65;2.83;;;;;;;29.49;28.53;98466.34;5015237;28;20155;-76
2022/09/15 05:18:17;;;;;;;5.43;2.70;;;;;;;29.91;27.92;98468.56;4987064;28;20091;-77
2022/09/15 05:20:42;;;;;;;4.78;2.60;;;;;;;30.51;26.97;98477.63;4980145;28;20033;-78
2022/09/15 05:23:08;;;;;;;5.63;2.67;;;;;;;31.05;26.71;98476.00;4992960;28;20034;-77
2022/09/15 05:25:34;;;;;;;8.98;2.53;;;;;;;31.74;25.75;98475.13;5018240;28;20391;-86
2022/09/15 05:27:59;;;;;;;4.95;2.70;;;;;;;32.31;24.66;98468.09;5003054;28;20385;-87
2022/09/15 05:30:24;;;;;;;38.80;2.97;;;;;;;32.79;24.04;98454.41;4985607;28;20053;-84
2022/09/15 05:32:50;;;;;;;62.22;3.55;;;;;;;33.27;23.58;98465.81;4984247;28;20492;-84
2022/09/15 05:35:16;;;;;;;59.90;3.90;;;;;;;33.72;23.33;98457.88;5000921;28;20044;-77
2022/09/15 05:37:41;;;;;;;55.15;3.67;;;;;;;33.93;23.14;98449.66;4991387;28;20140;-82
2022/09/15 05:40:07;;;;;;;28.58;3.53;;;;;;;34.31;22.46;98458.19;4989171;28;20433;-87
2022/09/15 05:42:33;;;;;;;21.17;3.60;;;;;;;34.52;22.59;98456.13;4988785;28;20052;-85
2022/09/15 05:44:59;;;;;;;25.52;3.53;;;;;;;34.60;22.43;98456.38;5024093;28;20401;-84
2022/09/15 05:47:25;;;;;;;19.33;3.60;;;;;;;34.47;22.63;98464.31;5003768;28;20052;-85
2022/09/15 05:49:53;;;;;;;24.02;3.92;;;;;;;34.42;22.37;98463.25;4989105;28;20031;-83
2022/09/15 05:52:19;;;;;;;21.10;3.38;;;;;;;34.63;22.95;98448.75;5022900;28;20029;-84
2022/09/15 05:54:44;;;;;;;16.08;3.47;;;;;;;34.82;22.49;98459.75;4987745;28;20022;-82
2022/09/15 05:57:10;;;;;;;8.82;3.53;;;;;;;34.96;22.27;98463.44;4972206;28;20041;-85
2022/09/15 05:59:38;;;;;;;15.02;3.78;;;;;;;35.05;22.81;98452.78;4971530;28;20029;-83
2022/09/15 06:02:03;;;;;;;16.17;3.47;;;;;;;35.22;22.24;98453.16;5023434;28;20029;-89
2022/09/15 06:04:29;;;;;;;12.45;3.38;;;;;;;35.35;21.99;98454.44;4973539;28;20122;-79
2022/09/15 06:06:55;;;;;;;16.67;3.80;;;;;;;35.31;21.78;98456.91;5019787;28;20036;-80
2022/09/15 06:09:20;;;;;;;12.85;3.28;;;;;;;35.36;21.46;98463.38;5002437;28;20033;-80
2022/09/15 06:11:46;;;;;;;11.45;3.63;;;;;;;35.34;21.27;98469.09;4988634;28;20625;-80
2022/09/15 06:14:12;;;;;;;13.02;3.88;;;;;;;35.31;20.83;98469.66;4990745;28;20095;-80
2022/09/15 06:16:37;;;;;;;20.33;3.85;;;;;;;35.22;21.05;98471.34;4970357;28;20115;-79
2022/09/15 06:19:03;;;;;;;14.75;4.47;;;;;;;35.20;20.69;98468.91;4970508;28;20428;-79
2022/09/15 06:21:29;;;;;;;14.32;4.85;;;;;;;35.28;20.69;98454.78;5021941;28;20032;-79
2022/09/15 06:23:56;;;;;;;20.23;5.72;;;;;;;35.38;20.74;98461.19;4972284;28;20488;-79
2022/09/15 06:26:22;;;;;;;25.52;6.15;;;;;;;35.37;20.54;98452.22;4986849;28;20022;-81
2022/09/15 06:28:49;;;;;;;19.60;5.90;;;;;;;35.56;20.61;98465.88;4971289;28;20063;-83
2022/09/15 06:31:14;;;;;;;23.95;6.13;;;;;;;35.66;20.48;98460.34;4972336;28;20032;-87
2022/09/15 06:33:42;;;;;;;17.98;6.28;;;;;;;35.76;20.33;98455.94;5021850;28;20025;-88
2022/09/15 06:36:10;;;;;;;22.05;6.45;;;;;;;35.85;20.31;98454.16;4989720;28;20032;-84
2022/09/15 06:38:35;;;;;;;27.27;7.18;;;;;;;35.85;20.38;98452.28;4996179;28;20042;-92
2022/09/15 06:41:01;;;;;;;27.63;6.65;;;;;;;35.94;20.11;98459.75;5030729;28;20063;-90
2022/09/15 06:43:26;;;;;;;23.77;7.20;;;;;;;35.98;20.00;98455.38;4999586;28;20102;-85
2022/09/15 06:45:52;;;;;;;22.45;6.53;;;;;;;36.03;20.16;98452.59;4990400;28;20030;-89
2022/09/15 06:48:18;;;;;;;21.02;6.68;;;;;;;36.00;19.98;98461.31;5009541;28;20570;-85
2022/09/15 06:50:43;;;;;;;15.50;6.18;;;;;;;35.94;19.80;98457.84;5026219;28;20026;-88
2022/09/15 06:53:09;;;;;;;20.88;6.40;;;;;;;35.94;19.73;98465.19;5005621;28;20037;-85
2022/09/15 06:55:34;;;;;;;21.58;6.30;;;;;;;35.94;19.85;98463.28;4990480;28;20029;-86
2022/09/15 06:58:00;;;;;;;18.27;6.18;;;;;;;35.92;19.78;98468.22;4986069;28;20034;-86
2022/09/15 07:00:26;;;;;;;17.63;5.60;;;;;;;35.97;19.84;98467.34;5010413;28;20513;-87
2022/09/15 07:02:52;;;;;;;18.73;5.40;;;;;;;36.00;19.75;98464.03;5005171;28;20026;-84
2022/09/15 07:05:17;;;;;;;16.55;5.75;;;;;;;36.02;19.53;98459.91;4974692;28;20566;-88
2022/09/15 07:07:43;;;;;;;14.20;5.13;;;;;;;36.00;19.71;98461.31;5024908;28;20040;-85
2022/09/15 07:10:10;;;;;;;19.00;5.40;;;;;;;35.99;19.81;98457.81;5006759;28;20025;-86
2022/09/15 07:12:36;;;;;;;13.98;5.22;;;;;;;35.95;19.86;98458.69;5021248;28;20041;-85
2022/09/15 07:15:01;;;;;;;19.88;5.25;;;;;;;36.00;19.50;98461.31;4986842;28;20029;-82
2022/09/15 07:17:27;;;;;;;14.82;5.00;;;;;;;35.74;20.16;98456.19;4977534;28;20033;-88
2022/09/15 07:19:53;;;;;;;30.05;5.85;;;;;;;35.70;20.48;98457.84;5019069;28;20037;-83
2022/09/15 07:22:18;;;;;;;62.63;22.65;;;;;;;35.79;20.72;98453.44;4996411;28;20120;-85
2022/09/15 07:24:44;;;;;;;47.22;14.70;;;;;;;35.98;20.36;98460.81;4991428;28;20029;-80
2022/09/15 07:27:09;;;;;;;34.70;11.13;;;;;;;36.11;20.11;98457.38;5007268;28;20413;-80
2022/09/15 07:29:37;;;;;;;27.77;10.40;;;;;;;36.25;19.84;98456.66;4969693;28;20174;-78
2022/09/15 07:32:03;;;;;;;24.77;9.95;;;;;;;36.38;19.75;98442.34;4983277;28;20038;-77
2022/09/15 07:34:29;;;;;;;21.93;8.83;;;;;;;36.54;19.55;98446.44;4982011;28;20049;-78
2022/09/15 07:36:54;;;;;;;15.13;7.85;;;;;;;36.61;19.44;98448.81;5006165;28;20030;-84
2022/09/15 07:39:20;;;;;;;16.73;6.95;;;;;;;36.67;19.41;98438.66;4972937;28;20026;-83
2022/09/15 07:41:45;;;;;;;22.02;6.55;;;;;;;36.64;19.52;98437.34;5006819;28;20026;-84
2022/09/15 07:44:12;;;;;;;15.07;6.35;;;;;;;36.73;19.52;98434.78;4980650;28;20026;-85
2022/09/15 07:46:37;;;;;;;16.38;5.93;;;;;;;36.69;19.81;98436.44;4973089;28;20561;-79
2022/09/15 07:49:03;;;;;;;20.38;5.18;;;;;;;36.60;19.71;98441.75;4990736;28;20049;-79
2022/09/15 07:51:28;;;;;;;18.25;6.10;;;;;;;36.69;20.14;98450.84;4990162;28;20037;-75
2022/09/15 07:53:54;;;;;;;13.38;5.20;;;;;;;36.69;19.58;98452.75;5003072;28;20030;-77
2022/09/15 07:56:20;;;;;;;16.35;5.35;;;;;;;36.63;19.97;98454.75;4987551;28;20041;-76
2022/09/15 07:58:46;;;;;;;17.98;5.72;;;;;;;36.65;20.02;98457.97;4986000;28;20034;-71
2022/09/15 08:01:13;;;;;;;15.40;5.07;;;;;;;36.71;20.30;98466.88;5003603;28;20088;-76
2022/09/15 08:03:43;;;;;;;19.10;6.03;;;;;;;36.67;20.96;98463.91;5002289;28;20081;-74
2022/09/15 08:06:08;;;;;;;18.15;5.35;;;;;;;36.66;22.12;98456.06;5001364;28;20096;-74
2022/09/15 08:08:35;;;;;;;16.77;5.13;;;;;;;36.84;22.14;98465.34;4970511;28;20394;-73
2022/09/15 08:11:05;;;;;;;18.40;5.80;;;;;;;37.01;22.23;98457.44;4970196;28;20126;-72
2022/09/15 08:13:30;;;;;;;15.82;5.35;;;;;;;37.20;22.69;98462.81;5001177;28;20062;-73
2022/09/15 08:15:56;;;;;;;19.45;5.55;;;;;;;37.37;21.94;98447.84;5004204;28;20034;-76
2022/09/15 08:18:21;;;;;;;20.48;6.05;;;;;;;37.43;20.99;98443.91;4970000;28;20037;-73
2022/09/15 08:20:47;;;;;;;21.02;5.63;;;;;;;37.44;21.55;98443.63;5001277;28;20038;-76
2022/09/15 08:23:12;;;;;;;15.27;5.18;;;;;;;37.62;21.14;98446.53;5003097;28;20022;-74
2022/09/15 08:25:38;;;;;;;18.30;4.50;;;;;;;37.85;20.19;98439.31;4985009;28;20231;-76
2022/09/15 08:28:03;;;;;;;15.20;4.55;;;;;;;38.23;18.78;98444.50;4991826;28;20102;-78
2022/09/15 08:30:29;;;;;;;23.30;4.63;;;;;;;38.49;17.66;98439.28;5000304;28;20070;-77
2022/09/15 08:32:54;;;;;;;15.23;4.30;;;;;;;38.75;18.18;98446.88;4986056;28;20101;-77
2022/09/15 08:35:20;;;;;;;14.50;4.55;;;;;;;38.93;16.96;98442.31;5002079;28;20113;-74
2022/09/15 08:37:46;;;;;;;17.83;4.22;;;;;;;39.17;17.31;98452.13;5001249;28;20033;-77
2022/09/15 08:40:33;;;;;;;20.10;3.78;;;;;;;39.43;17.52;98452.25;4986721;28;20026;-77
2022/09/15 08:42:59;;;;;;;9.18;3.13;;;;;;;39.61;16.39;98451.19;4986600;28;20036;-74
2022/09/15 08:45:27;;;;;;;12.00;2.83;;;;;;;39.63;16.63;98445.41;5002492;28;20026;-75
2022/09/15 08:47:57;;;;;;;13.15;2.60;;;;;;;39.72;16.78;98445.47;5000274;28;20071;-76
2022/09/15 08:50:37;;;;;;;8.48;2.17;;;;;;;39.57;16.45;98433.06;4985466;28;20014;-74
2022/09/15 08:53:16;;;;;;;8.52;1.90;;;;;;;39.69;16.38;98443.38;5003266;28;20030;-74
2022/09/15 08:55:47;;;;;;;15.23;1.80;;;;;;;39.62;16.16;98433.69;5002889;28;20030;-74
2022/09/15 08:58:20;;;;;;;9.88;2.08;;;;;;;39.55;16.26;98424.34;5000838;28;20057;-75
2022/09/15 09:00:47;;;;;;;8.88;2.00;;;;;;;39.68;16.51;98425.34;5000830;28;20021;-75
2022/09/15 09:03:35;;;;;;;9.07;1.52;;;;;;;39.72;16.51;98429.88;5003032;28;20072;-75
2022/09/15 09:06:20;;;;;;;6.97;1.60;;;;;;;39.71;16.64;98432.91;5002420;28;20037;-76
2022/09/15 09:09:05;;;;;;;6.68;1.60;;;;;;;39.79;16.83;98426.69;5002510;28;20109;-75
2022/09/15 09:11:30;;;;;;;7.57;1.70;;;;;;;39.86;16.83;98423.50;5002188;28;20482;-76
2022/09/15 09:14:04;;;;;;;12.90;1.50;;;;;;;39.89;17.16;98425.59;5002033;28;20034;-75
2022/09/15 09:16:48;;;;;;;7.78;1.30;;;;;;;39.89;17.46;98422.84;4983765;28;20034;-74
2022/09/15 09:19:35;;;;;;;5.65;1.40;;;;;;;39.92;17.07;98412.06;5001524;28;20049;-77
2022/09/15 09:22:04;;;;;;;3.50;1.52;;;;;;;39.93;17.13;98397.31;5002171;28;20089;-74
2022/09/15 09:24:44;;;;;;;4.88;1.50;;;;;;;39.88;16.61;98394.69;4983889;28;20038;-77
2022/09/15 09:27:14;;;;;;;4.80;1.42;;;;;;;39.77;16.52;98396.13;4984069;28;20038;-76
2022/09/15 09:29:48;;;;;;;7.85;1.60;;;;;;;39.69;17.04;98400.47;4985314;28;20068;-74
2022/09/15 09:32:24;;;;;;;8.60;1.40;;;;;;;39.64;16.66;98403.34;4970184;28;20413;-75
2022/09/15 09:35:13;;;;;;;9.38;2.17;;;;;;;39.51;16.77;98391.41;5001137;28;20073;-75
2022/09/15 09:37:38;;;;;;;9.15;2.05;;;;;;;39.43;16.72;98392.19;5001970;28;20029;-75
2022/09/15 09:40:04;;;;;;;5.55;1.98;;;;;;;39.37;16.98;98390.72;5000004;28;20063;-74
2022/09/15 09:42:31;;;;;;;4.53;2.15;;;;;;;39.22;17.38;98383.75;5001568;28;20029;-74
2022/09/15 09:44:56;;;;;;;7.83;2.20;;;;;;;39.11;17.45;98379.69;4967726;28;20085;-76
2022/09/15 09:47:27;;;;;;;5.40;2.13;;;;;;;39.05;17.99;98385.25;5000352;28;20272;-75
2022/09/15 09:49:52;;;;;;;11.10;1.98;;;;;;;38.97;17.93;98383.31;4969070;28;20030;-75
2022/09/15 09:52:34;;;;;;;7.50;2.08;;;;;;;38.86;18.13;98385.47;4983720;28;20050;-77
2022/09/15 09:55:01;;;;;;;7.40;1.88;;;;;;;38.83;17.95;98371.66;4984150;28;20036;-74
2022/09/15 09:57:31;;;;;;;7.28;2.30;;;;;;;38.76;18.57;98369.38;5000774;28;20548;-75
2022/09/15 09:59:57;;;;;;;12.60;2.55;;;;;;;38.73;18.85;98362.63;4965474;28;20644;-75
2022/09/15 10:02:26;;;;;;;8.50;2.50;;;;;;;38.64;18.74;98369.16;4999992;28;20078;-75
2022/09/15 10:05:18;;;;;;;7.47;2.25;;;;;;;38.58;18.41;98363.00;4985500;28;20074;-76
2022/09/15 10:07:44;;;;;;;5.53;2.10;;;;;;;38.46;18.22;98351.84;4989131;28;20044;-78
2022/09/15 10:10:21;;;;;;;11.13;2.05;;;;;;;38.33;18.88;98357.06;5001530;28;20446;-73
2022/09/15 10:12:46;;;;;;;9.40;2.15;;;;;;;38.28;18.28;98361.81;4968949;28;20040;-76
2022/09/15 10:15:26;;;;;;;5.78;2.00;;;;;;;38.13;18.73;98360.22;4966770;28;20026;-76
2022/09/15 10:17:51;;;;;;;7.45;2.17;;;;;;;38.09;19.43;98356.53;4999132;28;20026;-73
2022/09/15 10:20:31;;;;;;;6.43;1.90;;;;;;;38.01;19.28;98349.88;5000645;28;20493;-76
2022/09/15 10:23:20;;;;;;;7.82;1.98;;;;;;;37.87;19.76;98355.34;4999403;28;20041;-75
2022/09/15 10:25:45;;;;;;;8.55;2.47;;;;;;;37.75;18.98;98344.19;5001822;28;20032;-75
2022/09/15 10:28:13;;;;;;;8.43;2.10;;;;;;;37.58;19.02;98340.16;4982627;28;20409;-75
2022/09/15 10:30:54;;;;;;;11.43;2.13;;;;;;;37.46;19.15;98340.69;4998995;28;20469;-74
2022/09/15 10:33:27;;;;;;;4.22;1.75;;;;;;;37.40;19.36;98330.19;4986559;28;20030;-74
2022/09/15 10:35:53;;;;;;;3.88;1.48;;;;;;;37.32;19.39;98333.63;4998941;28;20026;-75
2022/09/15 10:38:33;;;;;;;3.25;1.70;;;;;;;37.24;19.28;98333.25;4984230;28;20025;-75
2022/09/15 10:41:26;;;;;;;5.22;1.50;;;;;;;37.08;19.09;98335.41;5000781;28;20030;-76
2022/09/15 10:44:34;;;;;;;5.70;1.63;;;;;;;36.98;19.39;98326.66;4986205;28;20052;-75
2022/09/15 10:47:18;;;;;;;5.07;1.58;;;;;;;36.87;19.69;98315.97;4922495;29;20216;-74
2022/09/15 10:50:07;;;;;;;7.80;1.77;;;;;;;36.77;20.19;98316.16;4922444;29;20028;-75
2022/09/15 10:52:42;;;;;;;5.07;1.42;;;;;;;36.67;20.00;98300.78;4923056;29;20425;-75
2022/09/15 10:55:31;;;;;;;5.85;1.50;;;;;;;36.59;20.00;98301.50;4904836;29;20035;-74
2022/09/15 10:58:05;;;;;;;21.13;2.55;;;;;;;36.49;19.62;98293.53;4909499;29;20396;-76
2022/09/15 11:00:55;;;;;;;10.25;2.20;;;;;;;36.32;19.66;98289.44;4891727;29;20039;-76
2022/09/15 11:03:23;;;;;;;6.70;1.58;;;;;;;36.32;19.54;98296.78;4907940;29;20043;-73
2022/09/15 11:06:09;;;;;;;8.00;1.65;;;;;;;36.19;19.79;98288.25;4921012;29;20044;-77
2022/09/15 11:08:53;;;;;;;6.03;1.90;;;;;;;36.11;19.70;98285.44;4906898;29;20090;-77
2022/09/15 11:11:37;;;;;;;8.35;1.63;;;;;;;35.98;19.94;98279.66;4920801;29;20339;-74
2022/09/15 11:14:06;;;;;;;8.93;2.75;;;;;;;35.91;19.74;98286.56;4893392;29;20040;-75
2022/09/15 11:16:55;;;;;;;6.63;2.22;;;;;;;35.78;19.77;98285.38;4920297;29;20486;-76
2022/09/15 11:19:30;;;;;;;8.75;2.38;;;;;;;35.76;20.05;98274.03;4922463;29;20035;-75
2022/09/15 11:22:22;;;;;;;8.90;1.88;;;;;;;35.70;20.41;98275.97;4924696;29;20031;-74
2022/09/15 11:25:10;;;;;;;7.88;1.80;;;;;;;35.65;20.49;98276.84;5020514;28;20085;-75
2022/09/15 11:27:39;;;;;;;9.77;3.38;;;;;;;35.62;20.19;98260.34;5002181;28;20033;-77
2022/09/15 11:30:19;;;;;;;9.73;2.60;;;;;;;35.51;20.44;98254.25;4988802;28;20061;-75
2022/09/15 11:32:49;;;;;;;7.63;2.33;;;;;;;35.50;20.84;98249.91;4988763;28;20050;-75
2022/09/15 11:35:28;;;;;;;12.88;2.13;;;;;;;35.44;20.46;98240.22;5003764;28;20502;-74
2022/09/15 11:37:55;;;;;;;10.15;2.33;;;;;;;35.36;20.50;98239.00;5001807;28;20093;-74
2022/09/15 11:40:49;;;;;;;7.07;1.95;;;;;;;35.34;20.73;98233.03;4986944;28;20026;-75
2022/09/15 11:43:27;;;;;;;12.25;2.13;;;;;;;35.26;20.98;98228.25;4994037;28;20046;-73